sensor_id;sensor_type;location;lat;lon;timestamp;P1;durP1;ratioP1;P2;durP2;ratioP2
82948;SDS011;72736;50.236;18.876;2024-03-25T00:01:38;8.90;;;4.50;;
82948;SDS011;72736;50.236;18.876;2024-03-25T00:06:41;8.40;;;4.10;;
82948;SDS011;72736;50.236;18.876;2024-03-25T00:11:44;10.30;;;5.10;;
82948;SDS011;72736;50.236;18.876;2024-03-25T00:16:47;8.30;;;4.10;;
82948;SDS011;72736;50.236;18.876;2024-03-25T00:21:50;11.60;;;5.30;;
82948;SDS011;72736;50.236;18.876;2024-03-25T00:26:53;10.70;;;4.60;;
82948;SDS011;72736;50.236;18.876;2024-03-25T00:31:56;8.60;;;4.70;;
82948;SDS011;72736;50.236;18.876;2024-03-25T00:36:59;9.00;;;4.10;;
82948;SDS011;72736;50.236;18.876;2024-03-25T00:42:02;8.00;;;3.50;;
82948;SDS011;72736;50.236;18.876;2024-03-25T00:47:06;6.40;;;3.30;;
82948;SDS011;72736;50.236;18.876;2024-03-25T00:52:09;8.40;;;3.60;;
82948;SDS011;72736;50.236;18.876;2024-03-25T00:57:13;6.70;;;3.50;;
82948;SDS011;72736;50.236;18.876;2024-03-25T01:02:17;6.00;;;3.20;;
82948;SDS011;72736;50.236;18.876;2024-03-25T01:07:20;6.50;;;3.00;;
82948;SDS011;72736;50.236;18.876;2024-03-25T01:12:23;7.80;;;3.20;;
82948;SDS011;72736;50.236;18.876;2024-03-25T01:17:27;7.90;;;2.60;;
82948;SDS011;72736;50.236;18.876;2024-03-25T01:22:30;5.90;;;3.20;;
82948;SDS011;72736;50.236;18.876;2024-03-25T01:27:33;5.80;;;2.60;;
82948;SDS011;72736;50.236;18.876;2024-03-25T01:32:36;6.10;;;2.60;;
82948;SDS011;72736;50.236;18.876;2024-03-25T01:37:39;5.20;;;2.40;;
82948;SDS011;72736;50.236;18.876;2024-03-25T01:42:42;5.60;;;2.60;;
82948;SDS011;72736;50.236;18.876;2024-03-25T01:47:46;5.90;;;2.60;;
82948;SDS011;72736;50.236;18.876;2024-03-25T01:52:49;5.70;;;2.90;;
82948;SDS011;72736;50.236;18.876;2024-03-25T01:57:52;6.90;;;3.50;;
82948;SDS011;72736;50.236;18.876;2024-03-25T02:02:55;7.50;;;3.60;;
82948;SDS011;72736;50.236;18.876;2024-03-25T02:07:59;7.60;;;3.70;;
82948;SDS011;72736;50.236;18.876;2024-03-25T02:13:03;6.60;;;4.00;;
82948;SDS011;72736;50.236;18.876;2024-03-25T02:18:07;9.90;;;4.20;;
82948;SDS011;72736;50.236;18.876;2024-03-25T02:23:09;8.20;;;3.70;;
82948;SDS011;72736;50.236;18.876;2024-03-25T02:28:13;8.20;;;4.40;;
82948;SDS011;72736;50.236;18.876;2024-03-25T02:33:16;7.10;;;3.80;;
82948;SDS011;72736;50.236;18.876;2024-03-25T02:38:19;6.80;;;3.80;;
82948;SDS011;72736;50.236;18.876;2024-03-25T02:43:23;7.70;;;4.60;;
82948;SDS011;72736;50.236;18.876;2024-03-25T02:48:26;7.80;;;4.30;;
82948;SDS011;72736;50.236;18.876;2024-03-25T02:53:29;9.80;;;4.20;;
82948;SDS011;72736;50.236;18.876;2024-03-25T02:58:33;6.90;;;3.40;;
82948;SDS011;72736;50.236;18.876;2024-03-25T03:03:36;6.50;;;3.80;;
82948;SDS011;72736;50.236;18.876;2024-03-25T03:08:39;6.90;;;3.50;;
82948;SDS011;72736;50.236;18.876;2024-03-25T03:13:42;6.00;;;3.40;;
82948;SDS011;72736;50.236;18.876;2024-03-25T03:18:45;5.90;;;3.00;;
82948;SDS011;72736;50.236;18.876;2024-03-25T03:23:48;5.20;;;2.70;;
82948;SDS011;72736;50.236;18.876;2024-03-25T03:28:51;5.70;;;2.70;;
82948;SDS011;72736;50.236;18.876;2024-03-25T03:33:54;6.60;;;3.40;;
82948;SDS011;72736;50.236;18.876;2024-03-25T03:38:58;5.70;;;2.80;;
82948;SDS011;72736;50.236;18.876;2024-03-25T03:44:00;6.00;;;3.40;;
82948;SDS011;72736;50.236;18.876;2024-03-25T03:49:04;6.40;;;3.40;;
82948;SDS011;72736;50.236;18.876;2024-03-25T03:54:07;6.60;;;3.20;;
82948;SDS011;72736;50.236;18.876;2024-03-25T03:59:10;6.30;;;3.30;;
82948;SDS011;72736;50.236;18.876;2024-03-25T04:04:13;6.40;;;3.30;;
82948;SDS011;72736;50.236;18.876;2024-03-25T04:09:16;6.40;;;3.10;;
82948;SDS011;72736;50.236;18.876;2024-03-25T04:14:19;6.70;;;2.90;;
82948;SDS011;72736;50.236;18.876;2024-03-25T04:19:24;6.10;;;3.20;;
82948;SDS011;72736;50.236;18.876;2024-03-25T04:24:27;7.90;;;3.70;;
82948;SDS011;72736;50.236;18.876;2024-03-25T04:29:30;7.80;;;3.70;;
82948;SDS011;72736;50.236;18.876;2024-03-25T04:34:33;10.60;;;3.40;;
82948;SDS011;72736;50.236;18.876;2024-03-25T04:39:37;12.70;;;4.20;;
82948;SDS011;72736;50.236;18.876;2024-03-25T04:44:40;7.40;;;3.70;;
82948;SDS011;72736;50.236;18.876;2024-03-25T04:49:43;7.80;;;3.40;;
82948;SDS011;72736;50.236;18.876;2024-03-25T04:54:47;5.40;;;3.00;;
82948;SDS011;72736;50.236;18.876;2024-03-25T04:59:51;6.70;;;3.50;;
82948;SDS011;72736;50.236;18.876;2024-03-25T05:04:55;7.40;;;3.80;;
82948;SDS011;72736;50.236;18.876;2024-03-25T05:09:58;6.90;;;3.60;;
82948;SDS011;72736;50.236;18.876;2024-03-25T05:15:02;6.30;;;2.80;;
82948;SDS011;72736;50.236;18.876;2024-03-25T05:20:08;6.30;;;2.90;;
82948;SDS011;72736;50.236;18.876;2024-03-25T05:25:12;4.90;;;2.50;;
82948;SDS011;72736;50.236;18.876;2024-03-25T05:30:15;4.80;;;2.20;;
82948;SDS011;72736;50.236;18.876;2024-03-25T05:35:18;5.80;;;2.80;;
82948;SDS011;72736;50.236;18.876;2024-03-25T05:40:23;8.50;;;2.80;;
82948;SDS011;72736;50.236;18.876;2024-03-25T05:45:25;6.80;;;2.80;;
82948;SDS011;72736;50.236;18.876;2024-03-25T05:50:28;7.50;;;3.40;;
82948;SDS011;72736;50.236;18.876;2024-03-25T05:55:31;6.20;;;3.40;;
82948;SDS011;72736;50.236;18.876;2024-03-25T06:00:34;6.20;;;3.50;;
82948;SDS011;72736;50.236;18.876;2024-03-25T06:05:37;7.80;;;3.60;;
82948;SDS011;72736;50.236;18.876;2024-03-25T06:10:40;7.70;;;4.10;;
82948;SDS011;72736;50.236;18.876;2024-03-25T06:15:43;6.90;;;3.40;;
82948;SDS011;72736;50.236;18.876;2024-03-25T06:20:47;8.20;;;4.30;;
82948;SDS011;72736;50.236;18.876;2024-03-25T06:25:50;9.90;;;5.50;;
82948;SDS011;72736;50.236;18.876;2024-03-25T06:30:54;9.10;;;5.10;;
82948;SDS011;72736;50.236;18.876;2024-03-25T06:36:15;10.20;;;5.20;;
82948;SDS011;72736;50.236;18.876;2024-03-25T06:41:19;9.50;;;5.10;;
82948;SDS011;72736;50.236;18.876;2024-03-25T06:46:22;9.20;;;4.50;;
82948;SDS011;72736;50.236;18.876;2024-03-25T06:51:25;10.80;;;5.50;;
82948;SDS011;72736;50.236;18.876;2024-03-25T06:56:29;12.40;;;4.80;;
82948;SDS011;72736;50.236;18.876;2024-03-25T07:01:31;8.60;;;4.80;;
82948;SDS011;72736;50.236;18.876;2024-03-25T07:06:35;10.80;;;5.00;;
82948;SDS011;72736;50.236;18.876;2024-03-25T07:11:37;10.20;;;4.00;;
82948;SDS011;72736;50.236;18.876;2024-03-25T07:21:46;8.60;;;3.70;;
82948;SDS011;72736;50.236;18.876;2024-03-25T07:26:49;9.10;;;4.30;;
82948;SDS011;72736;50.236;18.876;2024-03-25T07:31:52;8.70;;;4.50;;
82948;SDS011;72736;50.236;18.876;2024-03-25T07:36:55;8.90;;;4.70;;
82948;SDS011;72736;50.236;18.876;2024-03-25T07:41:58;8.10;;;4.40;;
82948;SDS011;72736;50.236;18.876;2024-03-25T07:47:01;8.10;;;4.20;;
82948;SDS011;72736;50.236;18.876;2024-03-25T07:52:04;7.30;;;3.90;;
82948;SDS011;72736;50.236;18.876;2024-03-25T07:57:07;9.50;;;4.70;;
82948;SDS011;72736;50.236;18.876;2024-03-25T08:02:11;9.90;;;4.60;;
82948;SDS011;72736;50.236;18.876;2024-03-25T08:07:14;7.80;;;3.90;;
82948;SDS011;72736;50.236;18.876;2024-03-25T08:12:17;6.60;;;4.00;;
82948;SDS011;72736;50.236;18.876;2024-03-25T08:17:20;8.30;;;4.90;;
82948;SDS011;72736;50.236;18.876;2024-03-25T08:22:24;9.30;;;4.40;;
82948;SDS011;72736;50.236;18.876;2024-03-25T08:27:27;9.00;;;4.80;;
82948;SDS011;72736;50.236;18.876;2024-03-25T08:32:30;8.70;;;4.90;;
82948;SDS011;72736;50.236;18.876;2024-03-25T08:37:34;9.60;;;4.40;;
82948;SDS011;72736;50.236;18.876;2024-03-25T08:42:37;9.00;;;4.80;;
82948;SDS011;72736;50.236;18.876;2024-03-25T08:47:40;11.00;;;4.50;;
82948;SDS011;72736;50.236;18.876;2024-03-25T08:52:44;9.70;;;4.30;;
82948;SDS011;72736;50.236;18.876;2024-03-25T08:57:46;7.40;;;3.70;;
82948;SDS011;72736;50.236;18.876;2024-03-25T09:02:50;7.10;;;3.80;;
82948;SDS011;72736;50.236;18.876;2024-03-25T09:07:53;7.70;;;3.80;;
82948;SDS011;72736;50.236;18.876;2024-03-25T09:12:56;6.90;;;3.60;;
82948;SDS011;72736;50.236;18.876;2024-03-25T09:17:59;6.10;;;3.10;;
82948;SDS011;72736;50.236;18.876;2024-03-25T09:23:03;5.00;;;3.00;;
82948;SDS011;72736;50.236;18.876;2024-03-25T09:28:06;5.10;;;2.40;;
82948;SDS011;72736;50.236;18.876;2024-03-25T09:33:09;4.30;;;2.00;;
82948;SDS011;72736;50.236;18.876;2024-03-25T09:38:12;4.00;;;1.60;;
82948;SDS011;72736;50.236;18.876;2024-03-25T09:43:17;4.40;;;2.40;;
82948;SDS011;72736;50.236;18.876;2024-03-25T09:48:25;6.00;;;2.50;;
82948;SDS011;72736;50.236;18.876;2024-03-25T09:53:30;3.90;;;2.20;;
82948;SDS011;72736;50.236;18.876;2024-03-25T09:58:33;14.50;;;4.60;;
82948;SDS011;72736;50.236;18.876;2024-03-25T10:03:40;5.90;;;2.60;;
82948;SDS011;72736;50.236;18.876;2024-03-25T10:08:43;5.20;;;1.90;;
82948;SDS011;72736;50.236;18.876;2024-03-25T10:13:47;5.00;;;1.90;;
82948;SDS011;72736;50.236;18.876;2024-03-25T10:18:50;3.40;;;1.60;;
82948;SDS011;72736;50.236;18.876;2024-03-25T10:23:53;4.00;;;1.90;;
82948;SDS011;72736;50.236;18.876;2024-03-25T10:29:01;3.80;;;1.80;;
82948;SDS011;72736;50.236;18.876;2024-03-25T10:34:05;5.10;;;2.00;;
82948;SDS011;72736;50.236;18.876;2024-03-25T10:39:08;4.70;;;2.30;;
82948;SDS011;72736;50.236;18.876;2024-03-25T10:44:15;3.60;;;1.70;;
82948;SDS011;72736;50.236;18.876;2024-03-25T10:49:21;2.90;;;1.10;;
82948;SDS011;72736;50.236;18.876;2024-03-25T10:54:30;3.00;;;1.40;;
82948;SDS011;72736;50.236;18.876;2024-03-25T10:59:33;4.60;;;2.10;;
82948;SDS011;72736;50.236;18.876;2024-03-25T11:04:42;4.50;;;2.20;;
82948;SDS011;72736;50.236;18.876;2024-03-25T11:09:46;5.00;;;2.20;;
82948;SDS011;72736;50.236;18.876;2024-03-25T11:14:56;4.20;;;1.40;;
82948;SDS011;72736;50.236;18.876;2024-03-25T11:20:09;2.40;;;1.10;;
82948;SDS011;72736;50.236;18.876;2024-03-25T11:25:13;3.00;;;1.50;;
82948;SDS011;72736;50.236;18.876;2024-03-25T11:30:16;5.20;;;2.00;;
82948;SDS011;72736;50.236;18.876;2024-03-25T11:35:19;6.90;;;2.60;;
82948;SDS011;72736;50.236;18.876;2024-03-25T11:40:23;6.10;;;2.40;;
82948;SDS011;72736;50.236;18.876;2024-03-25T11:45:26;5.10;;;2.40;;
82948;SDS011;72736;50.236;18.876;2024-03-25T11:50:29;7.90;;;2.30;;
82948;SDS011;72736;50.236;18.876;2024-03-25T11:55:33;7.30;;;2.80;;
82948;SDS011;72736;50.236;18.876;2024-03-25T12:00:36;6.10;;;2.50;;
82948;SDS011;72736;50.236;18.876;2024-03-25T12:05:46;6.50;;;2.30;;
82948;SDS011;72736;50.236;18.876;2024-03-25T12:10:49;4.40;;;2.20;;
82948;SDS011;72736;50.236;18.876;2024-03-25T12:16:10;5.70;;;2.30;;
82948;SDS011;72736;50.236;18.876;2024-03-25T12:21:14;5.00;;;2.20;;
82948;SDS011;72736;50.236;18.876;2024-03-25T12:26:17;5.30;;;3.00;;
82948;SDS011;72736;50.236;18.876;2024-03-25T12:31:23;6.70;;;3.30;;
82948;SDS011;72736;50.236;18.876;2024-03-25T12:36:26;4.60;;;2.20;;
82948;SDS011;72736;50.236;18.876;2024-03-25T12:41:31;6.00;;;2.80;;
82948;SDS011;72736;50.236;18.876;2024-03-25T12:46:34;8.50;;;4.20;;
82948;SDS011;72736;50.236;18.876;2024-03-25T12:51:37;5.00;;;2.40;;
82948;SDS011;72736;50.236;18.876;2024-03-25T12:56:41;5.40;;;3.30;;
82948;SDS011;72736;50.236;18.876;2024-03-25T13:01:43;8.90;;;3.80;;
82948;SDS011;72736;50.236;18.876;2024-03-25T13:06:46;4.20;;;2.20;;
82948;SDS011;72736;50.236;18.876;2024-03-25T13:11:49;5.00;;;2.10;;
82948;SDS011;72736;50.236;18.876;2024-03-25T13:16:52;4.10;;;1.60;;
82948;SDS011;72736;50.236;18.876;2024-03-25T13:21:55;4.00;;;1.80;;
82948;SDS011;72736;50.236;18.876;2024-03-25T13:26:59;4.00;;;2.00;;
82948;SDS011;72736;50.236;18.876;2024-03-25T13:32:02;4.80;;;1.90;;
82948;SDS011;72736;50.236;18.876;2024-03-25T13:37:07;4.90;;;2.80;;
82948;SDS011;72736;50.236;18.876;2024-03-25T13:42:15;3.80;;;1.90;;
82948;SDS011;72736;50.236;18.876;2024-03-25T13:47:18;4.40;;;2.30;;
82948;SDS011;72736;50.236;18.876;2024-03-25T13:57:27;8.10;;;2.60;;
82948;SDS011;72736;50.236;18.876;2024-03-25T14:02:30;5.00;;;2.80;;
82948;SDS011;72736;50.236;18.876;2024-03-25T14:07:33;5.80;;;2.80;;
82948;SDS011;72736;50.236;18.876;2024-03-25T14:12:36;7.10;;;2.70;;
82948;SDS011;72736;50.236;18.876;2024-03-25T14:17:39;5.00;;;2.40;;
82948;SDS011;72736;50.236;18.876;2024-03-25T14:22:42;5.50;;;2.20;;
82948;SDS011;72736;50.236;18.876;2024-03-25T14:27:45;3.60;;;2.00;;
82948;SDS011;72736;50.236;18.876;2024-03-25T14:32:47;5.10;;;2.30;;
82948;SDS011;72736;50.236;18.876;2024-03-25T14:37:50;4.00;;;2.20;;
82948;SDS011;72736;50.236;18.876;2024-03-25T14:42:53;5.50;;;2.40;;
82948;SDS011;72736;50.236;18.876;2024-03-25T14:47:56;4.40;;;2.00;;
82948;SDS011;72736;50.236;18.876;2024-03-25T14:52:59;4.00;;;2.00;;
82948;SDS011;72736;50.236;18.876;2024-03-25T14:58:02;4.90;;;2.20;;
82948;SDS011;72736;50.236;18.876;2024-03-25T15:03:05;5.50;;;2.20;;
82948;SDS011;72736;50.236;18.876;2024-03-25T15:08:08;4.20;;;2.30;;
82948;SDS011;72736;50.236;18.876;2024-03-25T15:13:11;5.10;;;2.50;;
82948;SDS011;72736;50.236;18.876;2024-03-25T15:18:15;6.80;;;3.00;;
82948;SDS011;72736;50.236;18.876;2024-03-25T15:23:18;6.30;;;2.50;;
82948;SDS011;72736;50.236;18.876;2024-03-25T15:28:21;5.90;;;2.50;;
82948;SDS011;72736;50.236;18.876;2024-03-25T15:33:24;7.90;;;3.00;;
82948;SDS011;72736;50.236;18.876;2024-03-25T15:38:27;10.00;;;3.20;;
82948;SDS011;72736;50.236;18.876;2024-03-25T15:43:30;6.40;;;3.00;;
82948;SDS011;72736;50.236;18.876;2024-03-25T15:48:33;7.70;;;3.30;;
82948;SDS011;72736;50.236;18.876;2024-03-25T15:53:37;6.60;;;3.10;;
82948;SDS011;72736;50.236;18.876;2024-03-25T15:58:40;11.10;;;4.40;;
82948;SDS011;72736;50.236;18.876;2024-03-25T16:03:43;13.40;;;4.10;;
82948;SDS011;72736;50.236;18.876;2024-03-25T16:08:47;13.60;;;5.20;;
82948;SDS011;72736;50.236;18.876;2024-03-25T16:13:50;12.60;;;4.90;;
82948;SDS011;72736;50.236;18.876;2024-03-25T16:18:54;16.00;;;6.40;;
82948;SDS011;72736;50.236;18.876;2024-03-25T16:23:58;11.60;;;5.50;;
82948;SDS011;72736;50.236;18.876;2024-03-25T16:29:01;9.60;;;5.10;;
82948;SDS011;72736;50.236;18.876;2024-03-25T16:34:04;13.10;;;5.40;;
82948;SDS011;72736;50.236;18.876;2024-03-25T16:39:07;8.60;;;4.00;;
82948;SDS011;72736;50.236;18.876;2024-03-25T16:44:12;8.50;;;4.50;;
82948;SDS011;72736;50.236;18.876;2024-03-25T16:49:16;9.90;;;4.20;;
82948;SDS011;72736;50.236;18.876;2024-03-25T16:54:19;12.20;;;5.30;;
82948;SDS011;72736;50.236;18.876;2024-03-25T16:59:22;14.70;;;6.30;;
82948;SDS011;72736;50.236;18.876;2024-03-25T17:04:25;14.40;;;6.10;;
82948;SDS011;72736;50.236;18.876;2024-03-25T17:09:30;10.90;;;5.00;;
82948;SDS011;72736;50.236;18.876;2024-03-25T17:14:34;11.70;;;5.20;;
82948;SDS011;72736;50.236;18.876;2024-03-25T17:19:37;13.20;;;6.70;;
82948;SDS011;72736;50.236;18.876;2024-03-25T17:24:41;16.50;;;7.60;;
82948;SDS011;72736;50.236;18.876;2024-03-25T17:29:47;12.70;;;6.00;;
82948;SDS011;72736;50.236;18.876;2024-03-25T17:34:50;14.10;;;5.90;;
82948;SDS011;72736;50.236;18.876;2024-03-25T17:39:54;12.20;;;5.80;;
82948;SDS011;72736;50.236;18.876;2024-03-25T17:44:56;12.00;;;6.60;;
82948;SDS011;72736;50.236;18.876;2024-03-25T17:49:59;16.60;;;7.00;;
82948;SDS011;72736;50.236;18.876;2024-03-25T17:55:04;16.30;;;8.50;;
82948;SDS011;72736;50.236;18.876;2024-03-25T18:00:08;15.10;;;7.40;;
82948;SDS011;72736;50.236;18.876;2024-03-25T18:05:13;21.00;;;10.50;;
82948;SDS011;72736;50.236;18.876;2024-03-25T18:10:16;25.00;;;13.50;;
82948;SDS011;72736;50.236;18.876;2024-03-25T18:15:19;32.90;;;20.80;;
82948;SDS011;72736;50.236;18.876;2024-03-25T18:20:22;38.40;;;19.60;;
82948;SDS011;72736;50.236;18.876;2024-03-25T18:25:25;37.40;;;19.30;;
82948;SDS011;72736;50.236;18.876;2024-03-25T18:30:29;56.50;;;28.60;;
82948;SDS011;72736;50.236;18.876;2024-03-25T18:35:35;48.00;;;24.50;;
82948;SDS011;72736;50.236;18.876;2024-03-25T18:40:39;43.80;;;23.90;;
82948;SDS011;72736;50.236;18.876;2024-03-25T18:45:41;44.90;;;22.60;;
82948;SDS011;72736;50.236;18.876;2024-03-25T18:50:45;21.30;;;9.30;;
82948;SDS011;72736;50.236;18.876;2024-03-25T18:55:47;19.60;;;8.00;;
82948;SDS011;72736;50.236;18.876;2024-03-25T19:00:50;15.70;;;7.90;;
82948;SDS011;72736;50.236;18.876;2024-03-25T19:05:53;17.80;;;8.00;;
82948;SDS011;72736;50.236;18.876;2024-03-25T19:10:56;36.80;;;15.90;;
82948;SDS011;72736;50.236;18.876;2024-03-25T19:15:59;66.50;;;29.90;;
82948;SDS011;72736;50.236;18.876;2024-03-25T19:21:02;67.80;;;29.80;;
82948;SDS011;72736;50.236;18.876;2024-03-25T19:26:06;18.70;;;8.10;;
82948;SDS011;72736;50.236;18.876;2024-03-25T19:31:08;14.40;;;6.00;;
82948;SDS011;72736;50.236;18.876;2024-03-25T19:36:11;12.50;;;5.40;;
82948;SDS011;72736;50.236;18.876;2024-03-25T19:41:18;13.20;;;5.30;;
82948;SDS011;72736;50.236;18.876;2024-03-25T19:46:22;53.10;;;18.60;;
82948;SDS011;72736;50.236;18.876;2024-03-25T19:51:25;100.00;;;35.50;;
82948;SDS011;72736;50.236;18.876;2024-03-25T19:56:28;162.40;;;58.70;;
82948;SDS011;72736;50.236;18.876;2024-03-25T20:01:31;140.20;;;46.40;;
82948;SDS011;72736;50.236;18.876;2024-03-25T20:06:34;42.20;;;15.10;;
82948;SDS011;72736;50.236;18.876;2024-03-25T20:11:37;19.60;;;7.80;;
82948;SDS011;72736;50.236;18.876;2024-03-25T20:16:39;18.60;;;8.40;;
82948;SDS011;72736;50.236;18.876;2024-03-25T20:21:42;15.50;;;7.00;;
82948;SDS011;72736;50.236;18.876;2024-03-25T20:26:45;14.00;;;6.20;;
82948;SDS011;72736;50.236;18.876;2024-03-25T20:31:48;13.00;;;6.30;;
82948;SDS011;72736;50.236;18.876;2024-03-25T20:36:51;14.60;;;6.40;;
82948;SDS011;72736;50.236;18.876;2024-03-25T20:41:54;23.70;;;10.80;;
82948;SDS011;72736;50.236;18.876;2024-03-25T20:46:57;41.00;;;17.10;;
82948;SDS011;72736;50.236;18.876;2024-03-25T20:52:00;72.60;;;26.60;;
82948;SDS011;72736;50.236;18.876;2024-03-25T20:57:03;203.80;;;65.20;;
82948;SDS011;72736;50.236;18.876;2024-03-25T21:02:07;308.50;;;95.30;;
82948;SDS011;72736;50.236;18.876;2024-03-25T21:07:10;240.70;;;71.30;;
82948;SDS011;72736;50.236;18.876;2024-03-25T21:12:13;250.90;;;71.50;;
82948;SDS011;72736;50.236;18.876;2024-03-25T21:17:16;95.00;;;33.80;;
82948;SDS011;72736;50.236;18.876;2024-03-25T21:22:18;215.00;;;70.50;;
82948;SDS011;72736;50.236;18.876;2024-03-25T21:27:21;83.00;;;29.90;;
82948;SDS011;72736;50.236;18.876;2024-03-25T21:32:24;24.20;;;12.00;;
82948;SDS011;72736;50.236;18.876;2024-03-25T21:37:28;22.60;;;9.20;;
82948;SDS011;72736;50.236;18.876;2024-03-25T21:42:31;18.20;;;7.80;;
82948;SDS011;72736;50.236;18.876;2024-03-25T21:47:34;15.50;;;7.10;;
82948;SDS011;72736;50.236;18.876;2024-03-25T21:52:37;43.00;;;15.80;;
82948;SDS011;72736;50.236;18.876;2024-03-25T21:57:40;98.20;;;31.30;;
82948;SDS011;72736;50.236;18.876;2024-03-25T22:02:43;123.10;;;37.80;;
82948;SDS011;72736;50.236;18.876;2024-03-25T22:07:47;114.70;;;36.40;;
82948;SDS011;72736;50.236;18.876;2024-03-25T22:12:50;164.90;;;53.90;;
82948;SDS011;72736;50.236;18.876;2024-03-25T22:17:53;121.20;;;42.10;;
82948;SDS011;72736;50.236;18.876;2024-03-25T22:22:56;64.60;;;24.60;;
82948;SDS011;72736;50.236;18.876;2024-03-25T22:28:00;37.60;;;15.40;;
82948;SDS011;72736;50.236;18.876;2024-03-25T22:33:03;34.60;;;14.00;;
82948;SDS011;72736;50.236;18.876;2024-03-25T22:38:06;26.80;;;10.70;;
82948;SDS011;72736;50.236;18.876;2024-03-25T22:43:09;21.30;;;8.10;;
82948;SDS011;72736;50.236;18.876;2024-03-25T22:48:12;22.30;;;8.30;;
82948;SDS011;72736;50.236;18.876;2024-03-25T22:53:15;102.30;;;32.00;;
82948;SDS011;72736;50.236;18.876;2024-03-25T22:58:19;81.90;;;26.40;;
82948;SDS011;72736;50.236;18.876;2024-03-25T23:03:22;95.80;;;33.50;;
82948;SDS011;72736;50.236;18.876;2024-03-25T23:08:25;70.40;;;24.20;;
82948;SDS011;72736;50.236;18.876;2024-03-25T23:13:30;54.40;;;20.30;;
82948;SDS011;72736;50.236;18.876;2024-03-25T23:18:33;37.80;;;13.20;;
82948;SDS011;72736;50.236;18.876;2024-03-25T23:23:36;29.40;;;12.00;;
82948;SDS011;72736;50.236;18.876;2024-03-25T23:28:39;29.80;;;13.00;;
82948;SDS011;72736;50.236;18.876;2024-03-25T23:33:43;57.00;;;20.80;;
82948;SDS011;72736;50.236;18.876;2024-03-25T23:38:46;57.90;;;22.00;;
82948;SDS011;72736;50.236;18.876;2024-03-25T23:43:48;53.50;;;22.40;;
82948;SDS011;72736;50.236;18.876;2024-03-25T23:48:51;52.60;;;21.70;;
82948;SDS011;72736;50.236;18.876;2024-03-25T23:53:54;34.80;;;15.10;;
82948;SDS011;72736;50.236;18.876;2024-03-25T23:58:58;29.90;;;13.90;;
